Terminal Aerodrome Forecast
Issued by NWS

Home | Current Version | Previous Version | Text Only | Print | Product List | Glossary On
Versions: 1 2 3 4 5 6 7 8 9 10 11 12 13 14 15 16
000
FTUS41 KBOX 310105 AAA
TAFBAF
TAF AMD
KBAF 310105Z 3101/3124 02005KT P6SM -RA FEW019 BKN070 OVC110
     FM310300 00000KT P6SM VCSH OVC060
     FM310800 00000KT 5SM BR VCSH OVC015
     FM311200 VRB03KT 3SM -SHRA BR OVC015
     FM311900 09004KT P6SM -SHRA OVC020
     FM312000 09004KT P6SM -SHRA OVC035
     FM312200 10005KT P6SM VCSH OVC050=

USA.gov is the U.S. government's official web portal to all federal, state and local government web resources and services.